sensor_id;sensor_type;location;lat;lon;timestamp;temperature;humidity
10583;DHT22;33679;51.218;6.786;2023-02-16T00:01:34;10.20;99.90
10583;DHT22;33679;51.218;6.786;2023-02-16T00:04:14;10.20;99.90
10583;DHT22;33679;51.218;6.786;2023-02-16T00:06:49;10.20;99.90
10583;DHT22;33679;51.218;6.786;2023-02-16T00:09:23;10.10;99.90
10583;DHT22;33679;51.218;6.786;2023-02-16T00:11:56;10.10;99.90
10583;DHT22;33679;51.218;6.786;2023-02-16T00:14:46;10.10;99.90
10583;DHT22;33679;51.218;6.786;2023-02-16T00:17:19;10.10;99.90
10583;DHT22;33679;51.218;6.786;2023-02-16T00:19:51;10.10;99.90
10583;DHT22;33679;51.218;6.786;2023-02-16T00:22:23;10.10;99.90
10583;DHT22;33679;51.218;6.786;2023-02-16T00:24:57;10.00;99.90
10583;DHT22;33679;51.218;6.786;2023-02-16T00:27:35;10.00;99.90
10583;DHT22;33679;51.218;6.786;2023-02-16T00:30:13;10.00;99.90
10583;DHT22;33679;51.218;6.786;2023-02-16T00:32:47;10.00;99.90
10583;DHT22;33679;51.218;6.786;2023-02-16T00:35:20;9.90;99.90
10583;DHT22;33679;51.218;6.786;2023-02-16T00:37:53;9.90;99.90
10583;DHT22;33679;51.218;6.786;2023-02-16T00:40:33;9.80;99.90
10583;DHT22;33679;51.218;6.786;2023-02-16T00:43:06;9.80;99.90
10583;DHT22;33679;51.218;6.786;2023-02-16T00:45:38;9.80;99.90
10583;DHT22;33679;51.218;6.786;2023-02-16T00:48:12;9.70;99.90
10583;DHT22;33679;51.218;6.786;2023-02-16T00:50:44;9.70;99.90
10583;DHT22;33679;51.218;6.786;2023-02-16T00:53:21;9.70;99.90
10583;DHT22;33679;51.218;6.786;2023-02-16T00:56:20;9.70;99.90
10583;DHT22;33679;51.218;6.786;2023-02-16T00:59:01;9.70;99.90
10583;DHT22;33679;51.218;6.786;2023-02-16T01:01:36;9.60;99.90
10583;DHT22;33679;51.218;6.786;2023-02-16T01:04:11;9.60;99.90
10583;DHT22;33679;51.218;6.786;2023-02-16T01:06:48;9.60;99.90
10583;DHT22;33679;51.218;6.786;2023-02-16T01:09:40;9.60;99.90
10583;DHT22;33679;51.218;6.786;2023-02-16T01:12:59;9.50;99.90
10583;DHT22;33679;51.218;6.786;2023-02-16T01:15:42;9.50;99.90
10583;DHT22;33679;51.218;6.786;2023-02-16T01:18:36;9.50;99.90
10583;DHT22;33679;51.218;6.786;2023-02-16T01:21:26;9.50;99.90
10583;DHT22;33679;51.218;6.786;2023-02-16T01:24:36;9.40;99.90
10583;DHT22;33679;51.218;6.786;2023-02-16T01:27:19;9.40;99.90
10583;DHT22;33679;51.218;6.786;2023-02-16T01:29:57;9.40;99.90
10583;DHT22;33679;51.218;6.786;2023-02-16T01:32:39;9.40;99.90
10583;DHT22;33679;51.218;6.786;2023-02-16T01:35:47;9.30;99.90
10583;DHT22;33679;51.218;6.786;2023-02-16T01:42:02;9.30;99.90
10583;DHT22;33679;51.218;6.786;2023-02-16T01:44:44;9.30;99.90
10583;DHT22;33679;51.218;6.786;2023-02-16T01:47:36;9.20;99.90
10583;DHT22;33679;51.218;6.786;2023-02-16T01:50:18;9.20;99.90
10583;DHT22;33679;51.218;6.786;2023-02-16T01:52:54;9.20;99.90
10583;DHT22;33679;51.218;6.786;2023-02-16T01:55:30;9.30;99.90
10583;DHT22;33679;51.218;6.786;2023-02-16T01:58:13;9.30;99.90
10583;DHT22;33679;51.218;6.786;2023-02-16T02:04:18;9.30;99.90
10583;DHT22;33679;51.218;6.786;2023-02-16T02:07:43;9.20;99.90
10583;DHT22;33679;51.218;6.786;2023-02-16T02:10:42;9.20;99.90
10583;DHT22;33679;51.218;6.786;2023-02-16T02:13:20;9.10;99.90
10583;DHT22;33679;51.218;6.786;2023-02-16T02:15:57;9.10;99.90
10583;DHT22;33679;51.218;6.786;2023-02-16T02:18:33;9.10;99.90
10583;DHT22;33679;51.218;6.786;2023-02-16T02:21:49;9.10;99.90
10583;DHT22;33679;51.218;6.786;2023-02-16T02:25:24;9.20;99.90
10583;DHT22;33679;51.218;6.786;2023-02-16T02:28:19;9.10;99.90
10583;DHT22;33679;51.218;6.786;2023-02-16T02:31:10;9.10;99.90
10583;DHT22;33679;51.218;6.786;2023-02-16T02:33:56;9.10;99.90
10583;DHT22;33679;51.218;6.786;2023-02-16T02:36:44;9.10;99.90
10583;DHT22;33679;51.218;6.786;2023-02-16T02:39:48;9.10;99.90
10583;DHT22;33679;51.218;6.786;2023-02-16T02:42:32;9.10;99.90
10583;DHT22;33679;51.218;6.786;2023-02-16T02:45:14;9.10;99.90
10583;DHT22;33679;51.218;6.786;2023-02-16T02:47:48;9.10;99.90
10583;DHT22;33679;51.218;6.786;2023-02-16T02:50:47;9.00;99.90
10583;DHT22;33679;51.218;6.786;2023-02-16T02:53:50;9.00;99.90
10583;DHT22;33679;51.218;6.786;2023-02-16T02:56:55;9.00;99.90
10583;DHT22;33679;51.218;6.786;2023-02-16T02:59:50;9.00;99.90
10583;DHT22;33679;51.218;6.786;2023-02-16T03:02:53;9.00;99.90
10583;DHT22;33679;51.218;6.786;2023-02-16T03:05:35;8.90;99.90
10583;DHT22;33679;51.218;6.786;2023-02-16T03:08:14;8.90;99.90
10583;DHT22;33679;51.218;6.786;2023-02-16T03:11:02;8.90;99.90
10583;DHT22;33679;51.218;6.786;2023-02-16T03:13:56;8.80;99.90
10583;DHT22;33679;51.218;6.786;2023-02-16T03:16:38;8.80;99.90
10583;DHT22;33679;51.218;6.786;2023-02-16T03:19:17;8.80;99.90
10583;DHT22;33679;51.218;6.786;2023-02-16T03:22:07;8.80;99.90
10583;DHT22;33679;51.218;6.786;2023-02-16T03:25:03;8.80;99.90
10583;DHT22;33679;51.218;6.786;2023-02-16T03:27:54;8.80;99.90
10583;DHT22;33679;51.218;6.786;2023-02-16T03:30:46;8.70;99.90
10583;DHT22;33679;51.218;6.786;2023-02-16T03:33:22;8.70;99.90
10583;DHT22;33679;51.218;6.786;2023-02-16T03:35:59;8.70;99.90
10583;DHT22;33679;51.218;6.786;2023-02-16T03:38:32;8.70;99.90
10583;DHT22;33679;51.218;6.786;2023-02-16T03:41:08;8.70;99.90
10583;DHT22;33679;51.218;6.786;2023-02-16T03:43:43;8.70;99.90
10583;DHT22;33679;51.218;6.786;2023-02-16T03:46:15;8.70;99.90
10583;DHT22;33679;51.218;6.786;2023-02-16T03:48:48;8.70;99.90
10583;DHT22;33679;51.218;6.786;2023-02-16T03:51:22;8.70;99.90
10583;DHT22;33679;51.218;6.786;2023-02-16T03:53:55;8.70;99.90
10583;DHT22;33679;51.218;6.786;2023-02-16T03:56:29;8.70;99.90
10583;DHT22;33679;51.218;6.786;2023-02-16T03:59:03;8.70;99.90
10583;DHT22;33679;51.218;6.786;2023-02-16T04:01:40;8.60;99.90
10583;DHT22;33679;51.218;6.786;2023-02-16T04:04:27;8.60;99.90
10583;DHT22;33679;51.218;6.786;2023-02-16T04:07:16;8.60;99.90
10583;DHT22;33679;51.218;6.786;2023-02-16T04:09:52;8.60;99.90
10583;DHT22;33679;51.218;6.786;2023-02-16T04:12:24;8.60;99.90
10583;DHT22;33679;51.218;6.786;2023-02-16T04:15:16;8.60;99.90
10583;DHT22;33679;51.218;6.786;2023-02-16T04:17:55;8.60;99.90
10583;DHT22;33679;51.218;6.786;2023-02-16T04:20:29;8.60;99.90
10583;DHT22;33679;51.218;6.786;2023-02-16T04:23:03;8.60;99.90
10583;DHT22;33679;51.218;6.786;2023-02-16T04:25:36;8.60;99.90
10583;DHT22;33679;51.218;6.786;2023-02-16T04:28:11;8.60;99.90
10583;DHT22;33679;51.218;6.786;2023-02-16T04:30:43;8.50;99.90
10583;DHT22;33679;51.218;6.786;2023-02-16T04:33:28;8.50;99.90
10583;DHT22;33679;51.218;6.786;2023-02-16T04:36:11;8.50;99.90
10583;DHT22;33679;51.218;6.786;2023-02-16T04:38:47;8.40;99.90
10583;DHT22;33679;51.218;6.786;2023-02-16T04:41:20;8.50;99.90
10583;DHT22;33679;51.218;6.786;2023-02-16T04:43:57;8.50;99.90
10583;DHT22;33679;51.218;6.786;2023-02-16T04:46:33;8.50;99.90
10583;DHT22;33679;51.218;6.786;2023-02-16T04:49:13;8.50;99.90
10583;DHT22;33679;51.218;6.786;2023-02-16T04:51:46;8.50;99.90
10583;DHT22;33679;51.218;6.786;2023-02-16T04:54:19;8.40;99.90
10583;DHT22;33679;51.218;6.786;2023-02-16T04:56:51;8.40;99.90
10583;DHT22;33679;51.218;6.786;2023-02-16T04:59:26;8.40;99.90
10583;DHT22;33679;51.218;6.786;2023-02-16T05:01:58;8.40;99.90
10583;DHT22;33679;51.218;6.786;2023-02-16T05:04:33;8.40;99.90
10583;DHT22;33679;51.218;6.786;2023-02-16T05:07:06;8.40;99.90
10583;DHT22;33679;51.218;6.786;2023-02-16T05:09:40;8.50;99.90
10583;DHT22;33679;51.218;6.786;2023-02-16T05:12:12;8.50;99.90
10583;DHT22;33679;51.218;6.786;2023-02-16T05:15:02;8.50;99.90
10583;DHT22;33679;51.218;6.786;2023-02-16T05:17:39;8.50;99.90
10583;DHT22;33679;51.218;6.786;2023-02-16T05:20:12;8.50;99.90
10583;DHT22;33679;51.218;6.786;2023-02-16T05:22:44;8.50;99.90
10583;DHT22;33679;51.218;6.786;2023-02-16T05:25:25;8.50;99.90
10583;DHT22;33679;51.218;6.786;2023-02-16T05:27:58;8.50;99.90
10583;DHT22;33679;51.218;6.786;2023-02-16T05:30:37;8.50;99.90
10583;DHT22;33679;51.218;6.786;2023-02-16T05:33:13;8.50;99.90
10583;DHT22;33679;51.218;6.786;2023-02-16T05:35:49;8.50;99.90
10583;DHT22;33679;51.218;6.786;2023-02-16T05:38:21;8.40;99.90
10583;DHT22;33679;51.218;6.786;2023-02-16T05:40:57;8.30;99.90
10583;DHT22;33679;51.218;6.786;2023-02-16T05:43:30;8.30;99.90
10583;DHT22;33679;51.218;6.786;2023-02-16T05:46:06;8.30;99.90
10583;DHT22;33679;51.218;6.786;2023-02-16T05:48:39;8.30;99.90
10583;DHT22;33679;51.218;6.786;2023-02-16T05:51:11;8.30;99.90
10583;DHT22;33679;51.218;6.786;2023-02-16T05:53:44;8.30;99.90
10583;DHT22;33679;51.218;6.786;2023-02-16T05:56:19;8.30;99.90
10583;DHT22;33679;51.218;6.786;2023-02-16T05:58:52;8.30;99.90
10583;DHT22;33679;51.218;6.786;2023-02-16T06:01:41;8.30;99.90
10583;DHT22;33679;51.218;6.786;2023-02-16T06:04:19;8.30;99.90
10583;DHT22;33679;51.218;6.786;2023-02-16T06:07:07;8.30;99.90
10583;DHT22;33679;51.218;6.786;2023-02-16T06:09:45;8.30;99.90
10583;DHT22;33679;51.218;6.786;2023-02-16T06:12:20;8.30;99.90
10583;DHT22;33679;51.218;6.786;2023-02-16T06:14:52;8.30;99.90
10583;DHT22;33679;51.218;6.786;2023-02-16T06:17:26;8.30;99.90
10583;DHT22;33679;51.218;6.786;2023-02-16T06:19:58;8.40;99.90
10583;DHT22;33679;51.218;6.786;2023-02-16T06:22:37;8.30;99.90
10583;DHT22;33679;51.218;6.786;2023-02-16T06:25:18;8.40;99.90
10583;DHT22;33679;51.218;6.786;2023-02-16T06:27:54;8.40;99.90
10583;DHT22;33679;51.218;6.786;2023-02-16T06:30:27;8.40;99.90
10583;DHT22;33679;51.218;6.786;2023-02-16T06:33:00;8.40;99.90
10583;DHT22;33679;51.218;6.786;2023-02-16T06:35:36;8.40;99.90
10583;DHT22;33679;51.218;6.786;2023-02-16T06:38:12;8.40;99.90
10583;DHT22;33679;51.218;6.786;2023-02-16T06:40:46;8.40;99.90
10583;DHT22;33679;51.218;6.786;2023-02-16T06:43:20;8.40;99.90
10583;DHT22;33679;51.218;6.786;2023-02-16T06:45:52;8.50;99.90
10583;DHT22;33679;51.218;6.786;2023-02-16T06:48:25;8.50;99.90
10583;DHT22;33679;51.218;6.786;2023-02-16T06:50:57;8.60;99.90
10583;DHT22;33679;51.218;6.786;2023-02-16T06:53:29;8.60;99.90
10583;DHT22;33679;51.218;6.786;2023-02-16T06:56:02;8.60;99.90
10583;DHT22;33679;51.218;6.786;2023-02-16T06:58:36;8.60;99.90
10583;DHT22;33679;51.218;6.786;2023-02-16T07:01:17;8.70;99.90
10583;DHT22;33679;51.218;6.786;2023-02-16T07:03:54;8.70;99.90
10583;DHT22;33679;51.218;6.786;2023-02-16T07:06:46;8.70;99.90
10583;DHT22;33679;51.218;6.786;2023-02-16T07:09:22;8.70;99.90
10583;DHT22;33679;51.218;6.786;2023-02-16T07:11:55;8.70;99.90
10583;DHT22;33679;51.218;6.786;2023-02-16T07:14:30;8.70;99.90
10583;DHT22;33679;51.218;6.786;2023-02-16T07:17:02;8.70;99.90
10583;DHT22;33679;51.218;6.786;2023-02-16T07:19:34;8.70;99.90
10583;DHT22;33679;51.218;6.786;2023-02-16T07:22:09;8.70;99.90
10583;DHT22;33679;51.218;6.786;2023-02-16T07:24:49;8.80;99.90
10583;DHT22;33679;51.218;6.786;2023-02-16T07:27:21;8.70;99.90
10583;DHT22;33679;51.218;6.786;2023-02-16T07:29:56;8.80;99.90
10583;DHT22;33679;51.218;6.786;2023-02-16T07:32:33;8.80;99.90
10583;DHT22;33679;51.218;6.786;2023-02-16T07:35:10;8.90;99.90
10583;DHT22;33679;51.218;6.786;2023-02-16T07:37:45;8.80;99.90
10583;DHT22;33679;51.218;6.786;2023-02-16T07:40:18;8.80;99.90
10583;DHT22;33679;51.218;6.786;2023-02-16T07:42:58;8.80;99.90
10583;DHT22;33679;51.218;6.786;2023-02-16T07:45:32;8.80;99.90
10583;DHT22;33679;51.218;6.786;2023-02-16T07:48:05;8.80;99.90
10583;DHT22;33679;51.218;6.786;2023-02-16T07:50:37;8.80;99.90
10583;DHT22;33679;51.218;6.786;2023-02-16T07:53:09;8.80;99.90
10583;DHT22;33679;51.218;6.786;2023-02-16T07:55:43;8.80;99.90
10583;DHT22;33679;51.218;6.786;2023-02-16T07:58:16;8.90;99.90
10583;DHT22;33679;51.218;6.786;2023-02-16T08:01:07;8.90;99.90
10583;DHT22;33679;51.218;6.786;2023-02-16T08:03:40;8.90;99.90
10583;DHT22;33679;51.218;6.786;2023-02-16T08:06:13;8.90;99.90
10583;DHT22;33679;51.218;6.786;2023-02-16T08:08:45;9.00;99.90
10583;DHT22;33679;51.218;6.786;2023-02-16T08:11:22;9.00;99.90
10583;DHT22;33679;51.218;6.786;2023-02-16T08:13:57;9.00;99.90
10583;DHT22;33679;51.218;6.786;2023-02-16T08:16:31;9.10;99.90
10583;DHT22;33679;51.218;6.786;2023-02-16T08:19:05;9.10;99.90
10583;DHT22;33679;51.218;6.786;2023-02-16T08:21:40;9.20;99.90
10583;DHT22;33679;51.218;6.786;2023-02-16T08:24:17;9.20;99.90
10583;DHT22;33679;51.218;6.786;2023-02-16T08:26:50;9.20;99.90
10583;DHT22;33679;51.218;6.786;2023-02-16T08:29:23;9.20;99.90
10583;DHT22;33679;51.218;6.786;2023-02-16T08:31:57;9.30;99.90
10583;DHT22;33679;51.218;6.786;2023-02-16T08:34:30;9.30;99.90
10583;DHT22;33679;51.218;6.786;2023-02-16T08:37:09;9.30;99.90
10583;DHT22;33679;51.218;6.786;2023-02-16T08:39:42;9.30;99.90
10583;DHT22;33679;51.218;6.786;2023-02-16T08:42:24;9.30;99.90
10583;DHT22;33679;51.218;6.786;2023-02-16T08:44:58;9.40;99.90
10583;DHT22;33679;51.218;6.786;2023-02-16T08:47:32;9.40;99.90
10583;DHT22;33679;51.218;6.786;2023-02-16T08:50:07;9.40;99.90
10583;DHT22;33679;51.218;6.786;2023-02-16T08:52:41;9.50;99.90
10583;DHT22;33679;51.218;6.786;2023-02-16T08:55:17;9.50;99.90
10583;DHT22;33679;51.218;6.786;2023-02-16T08:57:52;9.50;99.90
10583;DHT22;33679;51.218;6.786;2023-02-16T09:00:26;9.50;99.90
10583;DHT22;33679;51.218;6.786;2023-02-16T09:03:14;9.60;99.90
10583;DHT22;33679;51.218;6.786;2023-02-16T09:05:50;10.00;99.90
10583;DHT22;33679;51.218;6.786;2023-02-16T09:08:22;10.10;99.90
10583;DHT22;33679;51.218;6.786;2023-02-16T09:10:55;10.10;99.90
10583;DHT22;33679;51.218;6.786;2023-02-16T09:13:27;10.10;99.90
10583;DHT22;33679;51.218;6.786;2023-02-16T09:16:01;10.10;99.90
10583;DHT22;33679;51.218;6.786;2023-02-16T09:18:36;10.20;99.90
10583;DHT22;33679;51.218;6.786;2023-02-16T09:21:10;10.20;99.90
10583;DHT22;33679;51.218;6.786;2023-02-16T09:23:48;10.30;99.90
10583;DHT22;33679;51.218;6.786;2023-02-16T09:26:22;10.40;99.90
10583;DHT22;33679;51.218;6.786;2023-02-16T09:28:56;10.50;99.90
10583;DHT22;33679;51.218;6.786;2023-02-16T09:31:31;10.60;99.90
10583;DHT22;33679;51.218;6.786;2023-02-16T09:34:14;10.70;99.90
10583;DHT22;33679;51.218;6.786;2023-02-16T09:36:47;10.80;99.90
10583;DHT22;33679;51.218;6.786;2023-02-16T09:39:20;10.80;99.90
10583;DHT22;33679;51.218;6.786;2023-02-16T09:42:12;10.80;99.90
10583;DHT22;33679;51.218;6.786;2023-02-16T09:45:02;10.90;99.90
10583;DHT22;33679;51.218;6.786;2023-02-16T09:47:41;10.90;99.90
10583;DHT22;33679;51.218;6.786;2023-02-16T09:52:57;11.00;99.90
10583;DHT22;33679;51.218;6.786;2023-02-16T09:55:36;11.10;99.90
10583;DHT22;33679;51.218;6.786;2023-02-16T09:58:16;11.10;99.90
10583;DHT22;33679;51.218;6.786;2023-02-16T10:00:53;11.20;99.90
10583;DHT22;33679;51.218;6.786;2023-02-16T10:03:36;11.20;99.90
10583;DHT22;33679;51.218;6.786;2023-02-16T10:06:28;11.20;99.90
10583;DHT22;33679;51.218;6.786;2023-02-16T10:09:05;11.20;99.90
10583;DHT22;33679;51.218;6.786;2023-02-16T10:11:45;11.20;99.90
10583;DHT22;33679;51.218;6.786;2023-02-16T10:14:26;11.20;99.90
10583;DHT22;33679;51.218;6.786;2023-02-16T10:17:09;11.20;99.90
10583;DHT22;33679;51.218;6.786;2023-02-16T10:19:52;11.30;99.90
10583;DHT22;33679;51.218;6.786;2023-02-16T10:22:41;11.30;99.90
10583;DHT22;33679;51.218;6.786;2023-02-16T10:25:31;11.30;99.90
10583;DHT22;33679;51.218;6.786;2023-02-16T10:28:15;11.30;99.90
10583;DHT22;33679;51.218;6.786;2023-02-16T10:30:50;11.30;99.90
10583;DHT22;33679;51.218;6.786;2023-02-16T10:33:39;11.30;99.90
10583;DHT22;33679;51.218;6.786;2023-02-16T10:36:25;11.30;99.90
10583;DHT22;33679;51.218;6.786;2023-02-16T10:39:21;11.30;99.90
10583;DHT22;33679;51.218;6.786;2023-02-16T10:42:14;11.20;99.90
10583;DHT22;33679;51.218;6.786;2023-02-16T10:44:55;11.20;99.90
10583;DHT22;33679;51.218;6.786;2023-02-16T10:47:33;11.20;99.90
10583;DHT22;33679;51.218;6.786;2023-02-16T10:50:21;11.20;99.90
10583;DHT22;33679;51.218;6.786;2023-02-16T10:52:57;11.30;99.90
10583;DHT22;33679;51.218;6.786;2023-02-16T10:55:36;11.30;99.90
10583;DHT22;33679;51.218;6.786;2023-02-16T10:58:16;11.40;99.90
10583;DHT22;33679;51.218;6.786;2023-02-16T11:00:57;11.50;99.90
10583;DHT22;33679;51.218;6.786;2023-02-16T11:03:42;11.50;99.90
10583;DHT22;33679;51.218;6.786;2023-02-16T11:06:18;11.60;99.90
10583;DHT22;33679;51.218;6.786;2023-02-16T11:08:53;11.60;99.90
10583;DHT22;33679;51.218;6.786;2023-02-16T11:11:36;11.70;99.90
10583;DHT22;33679;51.218;6.786;2023-02-16T11:14:20;11.80;99.90
10583;DHT22;33679;51.218;6.786;2023-02-16T11:17:03;11.90;99.90
10583;DHT22;33679;51.218;6.786;2023-02-16T11:19:38;12.00;99.90
10583;DHT22;33679;51.218;6.786;2023-02-16T11:22:25;12.00;99.90
10583;DHT22;33679;51.218;6.786;2023-02-16T11:25:23;12.20;99.90
10583;DHT22;33679;51.218;6.786;2023-02-16T11:28:07;12.30;99.90
10583;DHT22;33679;51.218;6.786;2023-02-16T11:30:42;12.30;99.90
10583;DHT22;33679;51.218;6.786;2023-02-16T11:33:22;12.30;99.90
10583;DHT22;33679;51.218;6.786;2023-02-16T11:35:57;12.30;99.90
10583;DHT22;33679;51.218;6.786;2023-02-16T11:38:34;12.30;99.90
10583;DHT22;33679;51.218;6.786;2023-02-16T11:41:07;12.40;99.90
10583;DHT22;33679;51.218;6.786;2023-02-16T11:43:41;12.50;99.90
10583;DHT22;33679;51.218;6.786;2023-02-16T11:46:17;12.50;99.90
10583;DHT22;33679;51.218;6.786;2023-02-16T11:48:50;12.50;99.90
10583;DHT22;33679;51.218;6.786;2023-02-16T11:51:33;12.50;99.90
10583;DHT22;33679;51.218;6.786;2023-02-16T11:54:09;12.50;99.90
10583;DHT22;33679;51.218;6.786;2023-02-16T11:57:03;12.50;99.90
10583;DHT22;33679;51.218;6.786;2023-02-16T12:00:15;12.60;99.90
10583;DHT22;33679;51.218;6.786;2023-02-16T12:03:14;12.60;99.90
10583;DHT22;33679;51.218;6.786;2023-02-16T12:06:09;12.60;99.90
10583;DHT22;33679;51.218;6.786;2023-02-16T12:09:32;12.60;99.90
10583;DHT22;33679;51.218;6.786;2023-02-16T12:12:56;12.70;99.90
10583;DHT22;33679;51.218;6.786;2023-02-16T12:15:38;12.70;99.90
10583;DHT22;33679;51.218;6.786;2023-02-16T12:18:25;12.80;99.90
10583;DHT22;33679;51.218;6.786;2023-02-16T12:21:03;12.90;99.90
10583;DHT22;33679;51.218;6.786;2023-02-16T12:23:46;12.90;99.90
10583;DHT22;33679;51.218;6.786;2023-02-16T12:26:37;13.00;99.90
10583;DHT22;33679;51.218;6.786;2023-02-16T12:29:28;13.10;99.90
10583;DHT22;33679;51.218;6.786;2023-02-16T12:32:22;13.20;99.90
10583;DHT22;33679;51.218;6.786;2023-02-16T12:35:51;13.20;99.90
10583;DHT22;33679;51.218;6.786;2023-02-16T12:38:37;13.30;99.90
10583;DHT22;33679;51.218;6.786;2023-02-16T12:41:20;13.30;99.90
10583;DHT22;33679;51.218;6.786;2023-02-16T12:44:02;13.40;99.90
10583;DHT22;33679;51.218;6.786;2023-02-16T12:46:47;13.50;99.90
10583;DHT22;33679;51.218;6.786;2023-02-16T12:49:51;13.50;99.90
10583;DHT22;33679;51.218;6.786;2023-02-16T12:52:32;13.60;99.90
10583;DHT22;33679;51.218;6.786;2023-02-16T12:55:19;13.50;99.90
10583;DHT22;33679;51.218;6.786;2023-02-16T12:58:01;13.60;99.90
10583;DHT22;33679;51.218;6.786;2023-02-16T13:00:41;13.60;99.90
10583;DHT22;33679;51.218;6.786;2023-02-16T13:03:24;13.70;99.90
10583;DHT22;33679;51.218;6.786;2023-02-16T13:06:10;13.70;99.90
10583;DHT22;33679;51.218;6.786;2023-02-16T13:08:50;13.80;99.90
10583;DHT22;33679;51.218;6.786;2023-02-16T13:11:34;13.80;99.90
10583;DHT22;33679;51.218;6.786;2023-02-16T13:14:15;13.80;99.90
10583;DHT22;33679;51.218;6.786;2023-02-16T13:16:55;13.80;99.90
10583;DHT22;33679;51.218;6.786;2023-02-16T13:19:32;13.90;99.90
10583;DHT22;33679;51.218;6.786;2023-02-16T13:22:45;13.90;99.90
10583;DHT22;33679;51.218;6.786;2023-02-16T13:25:44;13.90;99.90
10583;DHT22;33679;51.218;6.786;2023-02-16T13:28:36;14.00;99.90
10583;DHT22;33679;51.218;6.786;2023-02-16T13:31:21;14.00;99.90
10583;DHT22;33679;51.218;6.786;2023-02-16T13:34:41;14.00;99.90
10583;DHT22;33679;51.218;6.786;2023-02-16T13:37:25;14.00;99.90
10583;DHT22;33679;51.218;6.786;2023-02-16T13:40:15;14.00;99.90
10583;DHT22;33679;51.218;6.786;2023-02-16T13:43:13;14.10;99.90
10583;DHT22;33679;51.218;6.786;2023-02-16T13:45:50;14.20;99.90
10583;DHT22;33679;51.218;6.786;2023-02-16T13:48:27;14.20;99.90
10583;DHT22;33679;51.218;6.786;2023-02-16T13:51:08;14.20;99.90
10583;DHT22;33679;51.218;6.786;2023-02-16T13:53:50;14.30;99.90
10583;DHT22;33679;51.218;6.786;2023-02-16T13:56:39;14.30;99.90
10583;DHT22;33679;51.218;6.786;2023-02-16T14:02:54;14.50;99.90
10583;DHT22;33679;51.218;6.786;2023-02-16T14:05:36;14.50;99.90
10583;DHT22;33679;51.218;6.786;2023-02-16T14:08:25;14.60;99.90
10583;DHT22;33679;51.218;6.786;2023-02-16T14:11:05;14.70;99.90
10583;DHT22;33679;51.218;6.786;2023-02-16T14:13:48;14.80;99.90
10583;DHT22;33679;51.218;6.786;2023-02-16T14:16:28;14.80;99.90
10583;DHT22;33679;51.218;6.786;2023-02-16T14:19:04;14.80;99.90
10583;DHT22;33679;51.218;6.786;2023-02-16T14:21:52;14.80;99.90
10583;DHT22;33679;51.218;6.786;2023-02-16T14:24:29;14.80;99.90
10583;DHT22;33679;51.218;6.786;2023-02-16T14:27:10;14.90;99.90
10583;DHT22;33679;51.218;6.786;2023-02-16T14:29:51;14.80;99.90
10583;DHT22;33679;51.218;6.786;2023-02-16T14:32:26;14.80;99.90
10583;DHT22;33679;51.218;6.786;2023-02-16T14:35:05;14.80;99.90
10583;DHT22;33679;51.218;6.786;2023-02-16T14:37:40;14.80;99.90
10583;DHT22;33679;51.218;6.786;2023-02-16T14:40:19;14.80;99.90
10583;DHT22;33679;51.218;6.786;2023-02-16T14:42:55;14.80;99.90
10583;DHT22;33679;51.218;6.786;2023-02-16T14:46:16;14.80;99.90
10583;DHT22;33679;51.218;6.786;2023-02-16T14:49:27;14.80;99.90
10583;DHT22;33679;51.218;6.786;2023-02-16T14:52:42;14.70;99.90
10583;DHT22;33679;51.218;6.786;2023-02-16T14:58:38;14.60;99.90
10583;DHT22;33679;51.218;6.786;2023-02-16T15:01:21;14.50;99.90
10583;DHT22;33679;51.218;6.786;2023-02-16T15:03:55;14.50;99.90
10583;DHT22;33679;51.218;6.786;2023-02-16T15:06:37;14.50;99.90
10583;DHT22;33679;51.218;6.786;2023-02-16T15:09:15;14.40;99.90
10583;DHT22;33679;51.218;6.786;2023-02-16T15:11:51;14.50;99.90
10583;DHT22;33679;51.218;6.786;2023-02-16T15:14:45;14.50;99.90
10583;DHT22;33679;51.218;6.786;2023-02-16T15:17:27;14.50;99.90
10583;DHT22;33679;51.218;6.786;2023-02-16T15:20:06;14.50;99.90
10583;DHT22;33679;51.218;6.786;2023-02-16T15:22:48;14.50;99.90
10583;DHT22;33679;51.218;6.786;2023-02-16T15:25:24;14.50;99.90
10583;DHT22;33679;51.218;6.786;2023-02-16T15:27:59;14.50;99.90
10583;DHT22;33679;51.218;6.786;2023-02-16T15:30:36;14.60;99.90
10583;DHT22;33679;51.218;6.786;2023-02-16T15:33:25;14.60;99.90
10583;DHT22;33679;51.218;6.786;2023-02-16T15:36:00;14.60;99.90
10583;DHT22;33679;51.218;6.786;2023-02-16T15:38:39;14.50;99.90
10583;DHT22;33679;51.218;6.786;2023-02-16T15:41:14;14.60;99.90
10583;DHT22;33679;51.218;6.786;2023-02-16T15:43:49;14.60;99.90
10583;DHT22;33679;51.218;6.786;2023-02-16T15:46:24;14.60;99.90
10583;DHT22;33679;51.218;6.786;2023-02-16T15:49:10;14.60;99.90
10583;DHT22;33679;51.218;6.786;2023-02-16T15:51:44;14.60;99.90
10583;DHT22;33679;51.218;6.786;2023-02-16T15:54:22;14.60;99.90
10583;DHT22;33679;51.218;6.786;2023-02-16T15:56:58;14.70;99.90
10583;DHT22;33679;51.218;6.786;2023-02-16T15:59:33;14.70;99.90
10583;DHT22;33679;51.218;6.786;2023-02-16T16:02:11;14.70;99.90
10583;DHT22;33679;51.218;6.786;2023-02-16T16:04:49;14.70;99.90
10583;DHT22;33679;51.218;6.786;2023-02-16T16:07:28;14.70;99.90
10583;DHT22;33679;51.218;6.786;2023-02-16T16:10:10;14.70;99.90
10583;DHT22;33679;51.218;6.786;2023-02-16T16:12:45;14.60;99.90
10583;DHT22;33679;51.218;6.786;2023-02-16T16:15:20;14.60;99.90
10583;DHT22;33679;51.218;6.786;2023-02-16T16:17:54;14.70;99.90
10583;DHT22;33679;51.218;6.786;2023-02-16T16:20:35;14.70;99.90
10583;DHT22;33679;51.218;6.786;2023-02-16T16:23:24;14.60;99.90
10583;DHT22;33679;51.218;6.786;2023-02-16T16:25:58;14.70;99.90
10583;DHT22;33679;51.218;6.786;2023-02-16T16:28:33;14.60;99.90
10583;DHT22;33679;51.218;6.786;2023-02-16T16:31:17;14.60;99.90
10583;DHT22;33679;51.218;6.786;2023-02-16T16:34:04;14.60;99.90
10583;DHT22;33679;51.218;6.786;2023-02-16T16:36:42;14.60;99.90
10583;DHT22;33679;51.218;6.786;2023-02-16T16:39:22;14.60;99.90
10583;DHT22;33679;51.218;6.786;2023-02-16T16:42:16;14.60;99.90
10583;DHT22;33679;51.218;6.786;2023-02-16T16:45:00;14.60;99.90
10583;DHT22;33679;51.218;6.786;2023-02-16T16:47:49;14.60;99.90
10583;DHT22;33679;51.218;6.786;2023-02-16T16:50:31;14.60;99.90
10583;DHT22;33679;51.218;6.786;2023-02-16T16:53:39;14.50;99.90
10583;DHT22;33679;51.218;6.786;2023-02-16T16:56:14;14.50;99.90
10583;DHT22;33679;51.218;6.786;2023-02-16T16:58:48;14.50;99.90
10583;DHT22;33679;51.218;6.786;2023-02-16T17:01:23;14.50;99.90
10583;DHT22;33679;51.218;6.786;2023-02-16T17:03:56;14.50;99.90
10583;DHT22;33679;51.218;6.786;2023-02-16T17:06:28;14.50;99.90
10583;DHT22;33679;51.218;6.786;2023-02-16T17:09:03;14.50;99.90
10583;DHT22;33679;51.218;6.786;2023-02-16T17:11:37;14.50;99.90
10583;DHT22;33679;51.218;6.786;2023-02-16T17:14:16;14.50;99.90
10583;DHT22;33679;51.218;6.786;2023-02-16T17:16:49;14.50;99.90
10583;DHT22;33679;51.218;6.786;2023-02-16T17:19:25;14.50;99.90
10583;DHT22;33679;51.218;6.786;2023-02-16T17:25:26;14.50;99.90